METAR Data
IDs: Format: Raw Decoded Include TAF

Data at: 1420 UTC 19 Jul 2019

METAR for:KEIK (Erie Muni, CO, US)
Text:KEIK 191418Z AUTO 00000KT 10SM CLR 24/04 A3001 RMK AO2 T02420039
Temperature: 24.2°C ( 76°F)
Dewpoint: 3.9°C ( 39°F) [RH = 27%]
Pressure (altimeter):30.01 inches Hg (1016.3 mb)
Winds:calm
Visibility:10 or more sm (16+ km)
Ceiling:at least 12,000 feet AGL
Clouds:sky clear below 12,000 feet AGL
QC Flag:automated observation with no human augmentation